Time;durP1;ratioP1;P1;durP2;ratioP2;P2;SDS_P1;SDS_P2;PMS_P1;PMS_P2;Temp;Humidity;BMP_temperature;BMP_pressure;BME280_temperature;BME280_humidity;BME280_pressure;Samples;Min_cycle;Max_cycle;Signal;HPM_P1;HPM_P2
2023/10/28 00:00:18;;;;;;;;;;;11.00;93.40;;;;;;4986702;28;20674;-66
2023/10/28 00:02:44;;;;;;;;;;;10.90;93.40;;;;;;4987095;28;19937;-65
2023/10/28 00:05:09;;;;;;;;;;;11.00;93.40;;;;;;4984210;28;19922;-65
2023/10/28 00:07:35;;;;;;;;;;;10.90;93.40;;;;;;4986976;28;20104;-66
2023/10/28 00:10:07;;;;;;;;;;;11.00;93.50;;;;;;4982187;28;19929;-65
2023/10/28 00:12:33;;;;;;;;;;;10.90;93.30;;;;;;4986856;28;19936;-65
2023/10/28 00:14:59;;;;;;;;;;;10.90;93.40;;;;;;4984875;28;20760;-64
2023/10/28 00:17:24;;;;;;;;;;;10.90;93.40;;;;;;5000470;28;19922;-65
2023/10/28 00:19:50;;;;;;;;;;;11.00;93.40;;;;;;4992905;28;19988;-65
2023/10/28 00:22:17;;;;;;;;;;;10.90;93.30;;;;;;5044137;28;19922;-66
2023/10/28 00:24:42;;;;;;;;;;;11.00;93.20;;;;;;4986529;28;19921;-66
2023/10/28 00:27:09;;;;;;;;;;;11.00;93.20;;;;;;4986303;28;19929;-65
2023/10/28 00:29:35;;;;;;;;;;;10.90;93.10;;;;;;4986545;28;19926;-65
2023/10/28 00:32:00;;;;;;;;;;;11.00;93.20;;;;;;4985852;28;20377;-65
2023/10/28 00:34:26;;;;;;;;;;;10.90;93.10;;;;;;4987779;28;19929;-65
2023/10/28 00:36:51;;;;;;;;;;;10.90;93.20;;;;;;4987539;28;19921;-65
2023/10/28 00:39:17;;;;;;;;;;;10.90;93.20;;;;;;4987861;28;19941;-65
2023/10/28 00:41:43;;;;;;;;;;;10.90;93.20;;;;;;4987461;28;19971;-65
2023/10/28 00:44:09;;;;;;;;;;;10.90;93.10;;;;;;4987535;28;19922;-65
2023/10/28 00:46:35;;;;;;;;;;;10.90;93.10;;;;;;4987849;28;20420;-66
2023/10/28 00:49:00;;;;;;;;;;;10.80;93.10;;;;;;4987764;28;20775;-66
2023/10/28 00:51:26;;;;;;;;;;;10.80;93.10;;;;;;4970171;28;19921;-65
2023/10/28 00:53:52;;;;;;;;;;;10.80;92.90;;;;;;4987207;28;20020;-66
2023/10/28 00:56:19;;;;;;;;;;;10.80;93.00;;;;;;4987424;28;19926;-66
2023/10/28 00:58:45;;;;;;;;;;;10.80;92.90;;;;;;4987493;28;19925;-65
2023/10/28 01:01:12;;;;;;;;;;;10.70;92.90;;;;;;4987491;28;19930;-66
2023/10/28 01:03:40;;;;;;;;;;;10.70;93.00;;;;;;4986834;28;19926;-66
2023/10/28 01:06:07;;;;;;;;;;;10.70;92.90;;;;;;4970420;28;19932;-65
2023/10/28 01:08:32;;;;;;;;;;;10.60;92.90;;;;;;4987624;28;19930;-65
2023/10/28 01:11:04;;;;;;;;;;;10.60;92.70;;;;;;4987375;28;19945;-65
2023/10/28 01:13:30;;;;;;;;;;;10.60;92.90;;;;;;4986978;28;19968;-65
2023/10/28 01:15:55;;;;;;;;;;;10.70;92.90;;;;;;4989428;28;19968;-66
2023/10/28 01:18:21;;;;;;;;;;;10.60;92.80;;;;;;4989573;28;19921;-65
2023/10/28 01:20:47;;;;;;;;;;;10.60;92.90;;;;;;4989784;28;19925;-66
2023/10/28 01:23:12;;;;;;;;;;;10.60;92.90;;;;;;4985459;28;19930;-66
2023/10/28 01:25:38;;;;;;;;;;;10.60;92.90;;;;;;4988968;28;20023;-65
2023/10/28 01:28:03;;;;;;;;;;;10.60;92.80;;;;;;4989489;28;20008;-65
2023/10/28 01:30:29;;;;;;;;;;;10.60;92.80;;;;;;4989302;28;20016;-66
2023/10/28 01:32:54;;;;;;;;;;;10.60;92.80;;;;;;4989318;28;20327;-65
2023/10/28 01:35:20;;;;;;;;;;;10.60;92.80;;;;;;4988610;28;19922;-65
2023/10/28 01:37:45;;;;;;;;;;;10.70;92.80;;;;;;4989216;28;19926;-65
2023/10/28 01:40:13;;;;;;;;;;;10.60;92.70;;;;;;4988985;28;20296;-65
2023/10/28 01:42:40;;;;;;;;;;;10.60;92.70;;;;;;4989103;28;20425;-65
2023/10/28 01:45:06;;;;;;;;;;;10.70;92.70;;;;;;4988381;28;19922;-66
2023/10/28 01:47:33;;;;;;;;;;;10.60;92.60;;;;;;4988602;28;20412;-64
2023/10/28 01:49:58;;;;;;;;;;;10.70;92.70;;;;;;4988030;28;19964;-65
2023/10/28 01:52:24;;;;;;;;;;;10.70;92.70;;;;;;4987643;28;19930;-65
2023/10/28 01:54:51;;;;;;;;;;;10.70;92.60;;;;;;4987021;28;20274;-66
2023/10/28 01:57:17;;;;;;;;;;;10.70;92.60;;;;;;4987406;28;19926;-65
2023/10/28 01:59:44;;;;;;;;;;;10.70;92.60;;;;;;4987494;28;19921;-66
2023/10/28 02:02:10;;;;;;;;;;;10.60;92.40;;;;;;4987875;28;20695;-65
2023/10/28 02:04:35;;;;;;;;;;;10.60;92.40;;;;;;4987575;28;19926;-65
2023/10/28 02:07:00;;;;;;;;;;;10.60;92.40;;;;;;4987323;28;19922;-65
2023/10/28 02:09:27;;;;;;;;;;;10.60;92.30;;;;;;4987594;28;19974;-65
2023/10/28 02:11:53;;;;;;;;;;;10.60;92.40;;;;;;4971138;28;20012;-65
2023/10/28 02:14:20;;;;;;;;;;;10.50;92.30;;;;;;4987622;28;19921;-66
2023/10/28 02:16:45;;;;;;;;;;;10.50;92.30;;;;;;4987425;28;19922;-66
2023/10/28 02:19:11;;;;;;;;;;;10.60;92.30;;;;;;4987428;28;19952;-65
2023/10/28 02:21:36;;;;;;;;;;;10.50;92.10;;;;;;4987428;28;20313;-65
2023/10/28 02:24:04;;;;;;;;;;;10.40;92.10;;;;;;4987134;28;20427;-65
2023/10/28 02:26:30;;;;;;;;;;;10.40;92.10;;;;;;4986650;28;19921;-65
2023/10/28 02:28:56;;;;;;;;;;;10.30;92.00;;;;;;4987536;28;19922;-65
2023/10/28 02:31:21;;;;;;;;;;;10.40;92.10;;;;;;4987190;28;19922;-65
2023/10/28 02:33:47;;;;;;;;;;;10.30;92.00;;;;;;4987216;28;19929;-65
2023/10/28 02:36:12;;;;;;;;;;;10.30;91.90;;;;;;4986841;28;19929;-65
2023/10/28 02:38:40;;;;;;;;;;;10.30;91.90;;;;;;4987295;28;21443;-66
2023/10/28 02:41:06;;;;;;;;;;;10.30;91.80;;;;;;4987563;28;20466;-66
2023/10/28 02:43:34;;;;;;;;;;;10.30;91.80;;;;;;4987147;28;19922;-66
2023/10/28 02:46:00;;;;;;;;;;;10.30;91.70;;;;;;4987242;28;19922;-66
2023/10/28 02:51:06;;;;;;;;;;;10.20;91.70;;;;;;5147581;27;19952;-65
2023/10/28 02:53:33;;;;;;;;;;;10.20;91.50;;;;;;5147214;27;19924;-65
2023/10/28 02:56:02;;;;;;;;;;;10.20;91.50;;;;;;5147201;27;19923;-64
2023/10/28 02:58:28;;;;;;;;;;;10.10;91.50;;;;;;5146547;27;19989;-65
2023/10/28 03:00:56;;;;;;;;;;;10.10;91.50;;;;;;5143133;27;20403;-65
2023/10/28 03:03:22;;;;;;;;;;;10.00;91.40;;;;;;5146810;27;19992;-65
2023/10/28 03:05:49;;;;;;;;;;;10.10;91.50;;;;;;5147220;27;20687;-65
2023/10/28 03:08:15;;;;;;;;;;;10.00;91.40;;;;;;5146731;27;20367;-65
2023/10/28 03:10:40;;;;;;;;;;;10.00;91.40;;;;;;5146801;27;19934;-65
2023/10/28 03:13:06;;;;;;;;;;;10.00;91.40;;;;;;5146531;27;19962;-65
2023/10/28 03:15:32;;;;;;;;;;;9.90;91.30;;;;;;5146959;27;20336;-65
2023/10/28 03:17:57;;;;;;;;;;;9.90;91.40;;;;;;5142397;27;20390;-65
2023/10/28 03:20:23;;;;;;;;;;;9.90;91.30;;;;;;5146460;27;19923;-65
2023/10/28 03:22:49;;;;;;;;;;;9.90;91.30;;;;;;5146848;27;19923;-65
2023/10/28 03:25:15;;;;;;;;;;;9.90;91.30;;;;;;5146872;27;19923;-65
2023/10/28 03:27:40;;;;;;;;;;;9.90;91.30;;;;;;5144709;27;20006;-65
2023/10/28 03:30:06;;;;;;;;;;;9.90;91.30;;;;;;5146528;27;19923;-65
2023/10/28 03:32:32;;;;;;;;;;;9.80;91.20;;;;;;5146582;27;19924;-65
2023/10/28 03:34:57;;;;;;;;;;;9.70;91.10;;;;;;5146514;27;19923;-65
2023/10/28 03:37:23;;;;;;;;;;;9.80;91.20;;;;;;5145900;27;19928;-65
2023/10/28 03:39:48;;;;;;;;;;;9.70;91.00;;;;;;5147859;27;20765;-66
2023/10/28 03:42:14;;;;;;;;;;;9.70;91.00;;;;;;5147676;27;19934;-65
2023/10/28 03:44:40;;;;;;;;;;;9.60;90.90;;;;;;5147813;27;19924;-66
2023/10/28 03:47:06;;;;;;;;;;;9.60;90.90;;;;;;5147489;27;20443;-65
2023/10/28 03:49:33;;;;;;;;;;;9.60;90.90;;;;;;5146064;27;19923;-66
2023/10/28 03:51:59;;;;;;;;;;;9.60;90.90;;;;;;5147307;27;19924;-65
2023/10/28 03:54:24;;;;;;;;;;;9.60;90.90;;;;;;5147735;27;19948;-65
2023/10/28 03:56:49;;;;;;;;;;;9.50;90.90;;;;;;5147078;27;19924;-65
2023/10/28 03:59:15;;;;;;;;;;;9.60;90.80;;;;;;5146819;27;20694;-65
2023/10/28 04:01:41;;;;;;;;;;;9.50;90.60;;;;;;5137589;27;19931;-66
2023/10/28 04:04:07;;;;;;;;;;;9.40;90.80;;;;;;5132934;27;20355;-65
2023/10/28 04:06:32;;;;;;;;;;;9.40;90.70;;;;;;5133573;27;19952;-65
2023/10/28 04:08:58;;;;;;;;;;;9.40;90.70;;;;;;5133263;27;19935;-65
2023/10/28 04:11:24;;;;;;;;;;;9.30;90.70;;;;;;5133318;27;19976;-64
2023/10/28 04:13:50;;;;;;;;;;;9.30;90.60;;;;;;5133485;27;19923;-65
2023/10/28 04:16:15;;;;;;;;;;;9.30;90.70;;;;;;5132800;27;20389;-65
2023/10/28 04:18:41;;;;;;;;;;;9.30;90.60;;;;;;5132934;27;20279;-64
2023/10/28 04:21:06;;;;;;;;;;;9.20;90.60;;;;;;5133256;27;19928;-65
2023/10/28 04:23:31;;;;;;;;;;;9.20;90.60;;;;;;5132341;27;20256;-65
2023/10/28 04:25:57;;;;;;;;;;;9.20;90.70;;;;;;5132670;27;19930;-67
2023/10/28 04:28:22;;;;;;;;;;;9.10;90.60;;;;;;5133280;27;19984;-67
2023/10/28 04:30:58;;;;;;;;;;;9.20;90.70;;;;;;5133031;27;19931;-67
2023/10/28 04:33:24;;;;;;;;;;;9.10;90.70;;;;;;5132681;27;19930;-66
2023/10/28 04:35:51;;;;;;;;;;;9.10;90.70;;;;;;5132672;27;19934;-65
2023/10/28 04:38:21;;;;;;;;;;;9.20;90.80;;;;;;5129685;27;19931;-65
2023/10/28 04:40:46;;;;;;;;;;;9.20;90.80;;;;;;5133062;27;20478;-66
2023/10/28 04:43:12;;;;;;;;;;;9.20;90.90;;;;;;5132244;27;20010;-65
2023/10/28 04:45:44;;;;;;;;;;;9.30;91.00;;;;;;5131799;27;20020;-65
2023/10/28 04:48:10;;;;;;;;;;;9.30;91.00;;;;;;5132015;27;19927;-66
2023/10/28 04:50:35;;;;;;;;;;;9.40;91.20;;;;;;5132648;27;19924;-66
2023/10/28 04:53:01;;;;;;;;;;;9.40;91.30;;;;;;5131787;27;19923;-65
2023/10/28 04:55:26;;;;;;;;;;;9.30;91.40;;;;;;5131993;27;20378;-65
2023/10/28 04:57:52;;;;;;;;;;;9.40;91.50;;;;;;5131685;27;19976;-66
2023/10/28 05:00:19;;;;;;;;;;;9.40;91.60;;;;;;5131154;27;20013;-65
2023/10/28 05:02:45;;;;;;;;;;;9.40;91.60;;;;;;5132301;27;19924;-65
2023/10/28 05:05:10;;;;;;;;;;;9.40;91.70;;;;;;5132367;27;20003;-65
2023/10/28 05:07:36;;;;;;;;;;;9.40;91.70;;;;;;5132000;27;19927;-66
2023/10/28 05:10:02;;;;;;;;;;;9.40;91.80;;;;;;5132145;27;19927;-65
2023/10/28 05:12:28;;;;;;;;;;;9.50;91.80;;;;;;5131056;27;19937;-65
2023/10/28 05:14:54;;;;;;;;;;;9.40;91.80;;;;;;5130972;27;20021;-65
2023/10/28 05:17:20;;;;;;;;;;;9.50;91.80;;;;;;5130307;27;19927;-65
2023/10/28 05:19:46;;;;;;;;;;;9.50;91.90;;;;;;5130497;27;19923;-65
2023/10/28 05:22:11;;;;;;;;;;;9.50;91.90;;;;;;5112151;27;19996;-65
2023/10/28 05:24:37;;;;;;;;;;;9.50;91.90;;;;;;5117016;27;19978;-65
2023/10/28 05:27:03;;;;;;;;;;;9.50;92.00;;;;;;5132141;27;20395;-66
2023/10/28 05:29:28;;;;;;;;;;;9.50;92.00;;;;;;5131683;27;19927;-65
2023/10/28 05:31:56;;;;;;;;;;;9.50;92.00;;;;;;5131895;27;19923;-65
2023/10/28 05:34:23;;;;;;;;;;;9.60;92.00;;;;;;5131496;27;20338;-66
2023/10/28 05:36:49;;;;;;;;;;;9.50;92.00;;;;;;5130505;27;19923;-64
2023/10/28 05:39:15;;;;;;;;;;;9.50;92.00;;;;;;5130819;27;19976;-65
2023/10/28 05:41:40;;;;;;;;;;;9.60;92.10;;;;;;5131684;27;19923;-65
2023/10/28 05:44:06;;;;;;;;;;;9.60;92.10;;;;;;5130592;27;20340;-65
2023/10/28 05:46:32;;;;;;;;;;;9.50;92.00;;;;;;5131602;27;19923;-65
2023/10/28 05:48:58;;;;;;;;;;;9.50;92.00;;;;;;5131042;27;19938;-65
2023/10/28 05:51:23;;;;;;;;;;;9.60;92.10;;;;;;5130503;27;20379;-64
2023/10/28 05:53:49;;;;;;;;;;;9.60;92.20;;;;;;5131529;27;20363;-65
2023/10/28 05:56:16;;;;;;;;;;;9.60;92.30;;;;;;5131307;27;19923;-65
2023/10/28 05:58:41;;;;;;;;;;;9.70;92.40;;;;;;5130340;27;19946;-64
2023/10/28 06:01:07;;;;;;;;;;;9.70;92.30;;;;;;5112808;27;20363;-65
2023/10/28 06:03:32;;;;;;;;;;;9.70;92.50;;;;;;5131479;27;19960;-64
2023/10/28 06:05:58;;;;;;;;;;;9.70;92.50;;;;;;5130975;27;19928;-64
2023/10/28 06:08:23;;;;;;;;;;;9.70;92.50;;;;;;5136412;27;19923;-64
2023/10/28 06:10:49;;;;;;;;;;;9.80;92.50;;;;;;5123582;27;20335;-65
2023/10/28 06:13:15;;;;;;;;;;;9.80;92.60;;;;;;5129335;27;19923;-65
2023/10/28 06:15:41;;;;;;;;;;;9.70;92.50;;;;;;5128391;27;19930;-65
2023/10/28 06:18:10;;;;;;;;;;;9.80;92.60;;;;;;5111875;27;19923;-64
2023/10/28 06:20:35;;;;;;;;;;;9.80;92.70;;;;;;5129347;27;19985;-64
2023/10/28 06:23:01;;;;;;;;;;;9.80;92.70;;;;;;5123536;27;19967;-64
2023/10/28 06:25:26;;;;;;;;;;;9.80;92.80;;;;;;5109783;28;20026;-64
2023/10/28 06:27:52;;;;;;;;;;;9.80;92.90;;;;;;5132446;27;19924;-64
2023/10/28 06:30:17;;;;;;;;;;;9.80;92.80;;;;;;5121903;27;19924;-65
2023/10/28 06:32:43;;;;;;;;;;;9.90;92.90;;;;;;5125849;27;19938;-65
2023/10/28 06:35:08;;;;;;;;;;;9.90;93.00;;;;;;5121856;27;20409;-65
2023/10/28 06:37:34;;;;;;;;;;;9.90;93.00;;;;;;5126638;27;19983;-64
2023/10/28 06:39:59;;;;;;;;;;;10.00;93.10;;;;;;5127962;27;19923;-65
2023/10/28 06:42:25;;;;;;;;;;;10.00;93.10;;;;;;5128655;27;20336;-65
2023/10/28 06:44:51;;;;;;;;;;;10.10;93.10;;;;;;5124559;27;20415;-65
2023/10/28 06:47:16;;;;;;;;;;;10.10;93.10;;;;;;5128953;27;20031;-65
2023/10/28 06:49:42;;;;;;;;;;;10.10;93.20;;;;;;5118437;28;19931;-65
2023/10/28 06:52:08;;;;;;;;;;;10.10;93.20;;;;;;5124583;27;19931;-65
2023/10/28 06:54:33;;;;;;;;;;;10.10;93.10;;;;;;5120073;27;20394;-65
2023/10/28 06:56:59;;;;;;;;;;;10.20;93.10;;;;;;5126103;27;19924;-65
2023/10/28 06:59:25;;;;;;;;;;;10.20;93.20;;;;;;5118789;28;19985;-65
2023/10/28 07:01:51;;;;;;;;;;;10.20;93.20;;;;;;5121004;28;19932;-66
2023/10/28 07:04:17;;;;;;;;;;;10.30;93.30;;;;;;5122917;27;19924;-66
2023/10/28 07:06:45;;;;;;;;;;;10.20;93.30;;;;;;5129138;28;19930;-66
2023/10/28 07:09:10;;;;;;;;;;;10.30;93.30;;;;;;5126472;28;20040;-65
2023/10/28 07:11:36;;;;;;;;;;;10.30;93.30;;;;;;5110226;28;19975;-66
2023/10/28 07:14:02;;;;;;;;;;;10.40;93.30;;;;;;5127755;28;19927;-65
2023/10/28 07:16:28;;;;;;;;;;;10.40;93.40;;;;;;5127732;27;19923;-65
2023/10/28 07:18:53;;;;;;;;;;;10.50;93.60;;;;;;5124852;28;20398;-65
2023/10/28 07:21:20;;;;;;;;;;;10.50;93.60;;;;;;5129414;27;19923;-65
2023/10/28 07:23:46;;;;;;;;;;;10.60;93.60;;;;;;5128758;27;20405;-66
2023/10/28 07:26:12;;;;;;;;;;;10.60;93.60;;;;;;5128097;27;19924;-65
2023/10/28 07:28:38;;;;;;;;;;;10.50;93.60;;;;;;5128541;27;19967;-65
2023/10/28 07:31:05;;;;;;;;;;;10.60;93.50;;;;;;5129018;28;20022;-66
2023/10/28 07:33:31;;;;;;;;;;;10.70;93.50;;;;;;5125626;28;19931;-65
2023/10/28 07:35:57;;;;;;;;;;;10.70;93.50;;;;;;5129024;27;19951;-65
2023/10/28 07:38:22;;;;;;;;;;;10.70;93.50;;;;;;5130989;27;20607;-65
2023/10/28 07:40:48;;;;;;;;;;;10.80;93.40;;;;;;5132312;27;19976;-64
2023/10/28 07:43:14;;;;;;;;;;;10.80;93.40;;;;;;5132257;27;20041;-64
2023/10/28 07:45:40;;;;;;;;;;;10.90;93.40;;;;;;5131685;27;19923;-64
2023/10/28 07:48:06;;;;;;;;;;;11.00;93.40;;;;;;5132431;27;19975;-64
2023/10/28 07:50:33;;;;;;;;;;;10.90;93.30;;;;;;5132618;27;19931;-65
2023/10/28 07:52:58;;;;;;;;;;;10.90;93.30;;;;;;5131324;27;19931;-64
2023/10/28 07:55:24;;;;;;;;;;;11.00;93.40;;;;;;5129114;27;20333;-65
2023/10/28 07:57:49;;;;;;;;;;;11.00;93.30;;;;;;5132530;27;19930;-65
2023/10/28 08:00:15;;;;;;;;;;;11.00;93.30;;;;;;5131969;27;19957;-65
2023/10/28 08:02:44;;;;;;;;;;;11.00;93.30;;;;;;5132391;27;20540;-65
2023/10/28 08:05:10;;;;;;;;;;;11.00;93.20;;;;;;5131829;27;19980;-65
2023/10/28 08:07:39;;;;;;;;;;;11.00;93.20;;;;;;5130393;27;19931;-64
2023/10/28 08:10:05;;;;;;;;;;;10.90;93.00;;;;;;5131198;27;19968;-65
2023/10/28 08:12:31;;;;;;;;;;;10.90;93.20;;;;;;5131778;27;19934;-65
2023/10/28 08:14:59;;;;;;;;;;;11.00;93.20;;;;;;5131287;27;19927;-65
2023/10/28 08:17:24;;;;;;;;;;;10.90;93.10;;;;;;5131549;27;19935;-64
2023/10/28 08:19:50;;;;;;;;;;;10.90;93.00;;;;;;5131826;27;19927;-65
2023/10/28 08:22:15;;;;;;;;;;;11.00;93.10;;;;;;5129380;27;19930;-65
2023/10/28 08:24:41;;;;;;;;;;;11.00;93.10;;;;;;5128466;27;19923;-65
2023/10/28 08:27:08;;;;;;;;;;;11.10;93.20;;;;;;5129463;27;19974;-65
2023/10/28 08:29:33;;;;;;;;;;;11.10;93.10;;;;;;5130817;27;19923;-64
2023/10/28 08:31:59;;;;;;;;;;;11.10;93.00;;;;;;5131318;27;20360;-65
2023/10/28 08:34:25;;;;;;;;;;;11.10;93.30;;;;;;5131424;27;19930;-64
2023/10/28 08:36:50;;;;;;;;;;;11.10;93.40;;;;;;5130477;27;19924;-64
2023/10/28 08:39:16;;;;;;;;;;;11.10;93.10;;;;;;5131053;27;20030;-64
2023/10/28 08:41:42;;;;;;;;;;;11.10;93.30;;;;;;5130486;27;19923;-64
2023/10/28 08:44:08;;;;;;;;;;;11.10;93.20;;;;;;5131937;27;20486;-64
2023/10/28 08:46:37;;;;;;;;;;;11.20;93.10;;;;;;5130608;27;19935;-64
2023/10/28 08:49:04;;;;;;;;;;;11.10;93.20;;;;;;5132349;27;20311;-65
2023/10/28 08:51:29;;;;;;;;;;;11.20;93.20;;;;;;5132590;27;19934;-64
2023/10/28 08:53:55;;;;;;;;;;;11.10;93.10;;;;;;5132571;27;19927;-64
2023/10/28 08:56:23;;;;;;;;;;;11.20;93.10;;;;;;5132715;27;19924;-64
2023/10/28 08:58:50;;;;;;;;;;;11.20;93.00;;;;;;5132712;27;19923;-64
2023/10/28 09:01:27;;;;;;;;;;;11.20;93.00;;;;;;5132213;27;19969;-64
2023/10/28 09:04:00;;;;;;;;;;;11.20;93.00;;;;;;5131312;27;19959;-64
2023/10/28 09:06:26;;;;;;;;;;;11.20;93.00;;;;;;5132010;27;19923;-64
2023/10/28 09:08:51;;;;;;;;;;;11.20;93.00;;;;;;5132478;27;19995;-65
2023/10/28 09:11:17;;;;;;;;;;;11.30;93.00;;;;;;5129458;27;20408;-67
2023/10/28 09:13:45;;;;;;;;;;;11.30;93.00;;;;;;5130102;27;19950;-65
2023/10/28 09:16:16;;;;;;;;;;;11.60;93.80;;;;;;5130245;27;19970;-65
2023/10/28 09:18:42;;;;;;;;;;;11.70;93.20;;;;;;5130824;27;20482;-64
2023/10/28 09:21:09;;;;;;;;;;;11.80;93.00;;;;;;5129048;27;20029;-75
2023/10/28 09:23:35;;;;;;;;;;;12.00;93.60;;;;;;5121805;27;19967;-75
2023/10/28 09:26:00;;;;;;;;;;;12.20;93.00;;;;;;5128116;27;19969;-74
2023/10/28 09:28:26;;;;;;;;;;;12.50;92.70;;;;;;5127941;27;19939;-76
2023/10/28 09:30:52;;;;;;;;;;;12.70;91.50;;;;;;5128849;27;20018;-77
2023/10/28 09:33:18;;;;;;;;;;;13.00;90.40;;;;;;5111880;27;19970;-74
2023/10/28 09:35:44;;;;;;;;;;;13.10;89.50;;;;;;5126274;27;20272;-70
2023/10/28 09:38:11;;;;;;;;;;;13.10;88.70;;;;;;5128716;27;20359;-64
2023/10/28 09:40:37;;;;;;;;;;;13.20;87.80;;;;;;5128615;27;19927;-64
2023/10/28 09:43:03;;;;;;;;;;;13.20;87.80;;;;;;5128949;27;19955;-64
2023/10/28 09:45:28;;;;;;;;;;;13.00;87.70;;;;;;5130060;27;20014;-64
2023/10/28 09:47:57;;;;;;;;;;;12.80;88.30;;;;;;5128918;27;20010;-64
2023/10/28 09:50:27;;;;;;;;;;;12.70;88.60;;;;;;5126623;27;19949;-64
2023/10/28 09:52:53;;;;;;;;;;;12.60;88.90;;;;;;5129265;27;19957;-65
2023/10/28 09:55:22;;;;;;;;;;;12.50;89.40;;;;;;5129714;27;19923;-64
2023/10/28 09:57:51;;;;;;;;;;;12.40;89.50;;;;;;5127352;27;19924;-64
2023/10/28 10:00:18;;;;;;;;;;;12.30;89.80;;;;;;5128296;27;20298;-64
2023/10/28 10:02:59;;;;;;;;;;;12.30;90.00;;;;;;5130067;27;19959;-64
2023/10/28 10:05:37;;;;;;;;;;;12.30;90.10;;;;;;5128516;27;20028;-64
2023/10/28 10:08:02;;;;;;;;;;;12.20;90.20;;;;;;5128784;27;19927;-64
2023/10/28 10:10:28;;;;;;;;;;;12.20;90.30;;;;;;5127022;27;19930;-65
2023/10/28 10:13:00;;;;;;;;;;;12.10;90.50;;;;;;5127205;27;19923;-65
2023/10/28 10:15:29;;;;;;;;;;;12.10;90.90;;;;;;5126355;27;19968;-65
2023/10/28 10:18:10;;;;;;;;;;;12.10;91.00;;;;;;5122685;27;19938;-64
2023/10/28 10:20:36;;;;;;;;;;;12.10;91.00;;;;;;5120197;27;19978;-65
2023/10/28 10:23:02;;;;;;;;;;;12.10;91.00;;;;;;5127697;27;19923;-65
2023/10/28 10:25:39;;;;;;;;;;;12.10;91.10;;;;;;5128931;27;19923;-65
2023/10/28 10:28:15;;;;;;;;;;;12.10;91.10;;;;;;5111659;27;20299;-64
2023/10/28 10:30:41;;;;;;;;;;;12.10;91.20;;;;;;5115498;27;19942;-65
2023/10/28 10:33:07;;;;;;;;;;;12.10;91.30;;;;;;5124674;27;19949;-64
2023/10/28 10:35:34;;;;;;;;;;;12.10;91.40;;;;;;5125935;27;20379;-65
2023/10/28 10:38:03;;;;;;;;;;;12.10;91.40;;;;;;5116817;27;19928;-65
2023/10/28 10:40:31;;;;;;;;;;;12.10;91.50;;;;;;5125367;27;19998;-65
2023/10/28 10:43:03;;;;;;;;;;;12.10;91.50;;;;;;5101408;28;19931;-65
2023/10/28 10:45:28;;;;;;;;;;;12.10;91.60;;;;;;5118840;27;19928;-65
2023/10/28 10:47:54;;;;;;;;;;;12.20;91.70;;;;;;5109790;28;19931;-64
2023/10/28 10:50:20;;;;;;;;;;;12.30;91.80;;;;;;5116688;27;19931;-65
2023/10/28 10:52:46;;;;;;;;;;;12.30;91.80;;;;;;5120315;28;20371;-65
2023/10/28 10:55:21;;;;;;;;;;;12.30;91.60;;;;;;5128747;28;19923;-65
2023/10/28 10:57:47;;;;;;;;;;;12.30;91.60;;;;;;5118537;27;19923;-65
2023/10/28 11:00:12;;;;;;;;;;;12.30;91.60;;;;;;5109037;28;20269;-64
2023/10/28 11:02:38;;;;;;;;;;;12.30;91.50;;;;;;5110412;28;20010;-65
2023/10/28 11:05:04;;;;;;;;;;;12.30;91.50;;;;;;5109249;28;19931;-64
2023/10/28 11:07:30;;;;;;;;;;;12.30;91.60;;;;;;5112387;28;20387;-64
2023/10/28 11:09:55;;;;;;;;;;;12.30;91.60;;;;;;5116380;27;20010;-66
2023/10/28 11:12:21;;;;;;;;;;;12.30;91.60;;;;;;5132695;27;19946;-66
2023/10/28 11:14:47;;;;;;;;;;;12.50;92.00;;;;;;5133060;27;19923;-65
2023/10/28 11:17:13;;;;;;;;;;;12.60;91.70;;;;;;5105256;27;19928;-65
2023/10/28 11:19:46;;;;;;;;;;;12.60;91.60;;;;;;5126695;27;19931;-65
2023/10/28 11:22:12;;;;;;;;;;;12.50;91.30;;;;;;5125905;27;20288;-65
2023/10/28 11:24:38;;;;;;;;;;;12.50;91.30;;;;;;5114338;27;19924;-65
2023/10/28 11:27:03;;;;;;;;;;;12.50;91.40;;;;;;5133383;27;19984;-66
2023/10/28 11:29:29;;;;;;;;;;;12.50;91.50;;;;;;5128442;27;19958;-65
2023/10/28 11:31:55;;;;;;;;;;;12.50;91.40;;;;;;5132983;27;19928;-66
2023/10/28 11:34:20;;;;;;;;;;;12.50;91.60;;;;;;5133202;27;19953;-66
2023/10/28 11:36:46;;;;;;;;;;;12.60;91.60;;;;;;5128495;27;19988;-66
2023/10/28 11:39:13;;;;;;;;;;;12.60;91.60;;;;;;5128810;27;19959;-65
2023/10/28 11:41:41;;;;;;;;;;;12.70;91.70;;;;;;5132586;27;20432;-66
2023/10/28 11:44:10;;;;;;;;;;;12.70;91.60;;;;;;5133293;27;19927;-66
2023/10/28 11:46:35;;;;;;;;;;;12.70;91.60;;;;;;5126769;27;19931;-66
2023/10/28 11:49:01;;;;;;;;;;;12.80;91.50;;;;;;5132519;27;19924;-66
2023/10/28 11:51:28;;;;;;;;;;;12.80;91.30;;;;;;5132384;27;20390;-66
2023/10/28 11:53:53;;;;;;;;;;;12.70;91.40;;;;;;5130792;27;20618;-66
2023/10/28 11:56:21;;;;;;;;;;;12.70;91.40;;;;;;5130855;27;19972;-66
2023/10/28 11:58:50;;;;;;;;;;;12.90;91.40;;;;;;5130976;27;19931;-66
2023/10/28 12:01:16;;;;;;;;;;;12.80;91.50;;;;;;5131226;27;19931;-67
2023/10/28 12:03:41;;;;;;;;;;;12.90;91.60;;;;;;5131580;27;19927;-67
2023/10/28 12:06:07;;;;;;;;;;;12.90;91.50;;;;;;5131090;27;19923;-67
2023/10/28 12:08:33;;;;;;;;;;;12.90;91.30;;;;;;5131496;27;20022;-67
2023/10/28 12:10:58;;;;;;;;;;;12.90;91.40;;;;;;5132930;27;19928;-67
2023/10/28 12:13:25;;;;;;;;;;;12.90;91.40;;;;;;5132739;27;19923;-69
2023/10/28 12:15:51;;;;;;;;;;;12.90;91.40;;;;;;5133198;27;19923;-69
2023/10/28 12:18:17;;;;;;;;;;;12.90;91.40;;;;;;5132946;27;20287;-72
2023/10/28 12:20:42;;;;;;;;;;;12.90;91.40;;;;;;5114704;27;19935;-72
2023/10/28 12:23:09;;;;;;;;;;;13.00;91.50;;;;;;5132706;27;19997;-73
2023/10/28 12:25:35;;;;;;;;;;;13.00;91.60;;;;;;5133302;27;19927;-74
2023/10/28 12:28:00;;;;;;;;;;;13.00;91.60;;;;;;5132250;27;20553;-67
2023/10/28 12:30:26;;;;;;;;;;;13.00;91.60;;;;;;5131596;27;20299;-67
2023/10/28 12:32:58;;;;;;;;;;;13.00;91.80;;;;;;5126892;27;20038;-66
2023/10/28 12:35:24;;;;;;;;;;;13.10;91.80;;;;;;5131265;27;20061;-66
2023/10/28 12:37:49;;;;;;;;;;;13.10;91.90;;;;;;5133144;27;19923;-66
2023/10/28 12:40:15;;;;;;;;;;;13.10;91.90;;;;;;5131065;27;19930;-67
2023/10/28 12:42:41;;;;;;;;;;;13.10;91.80;;;;;;5132401;27;20379;-66
2023/10/28 12:45:06;;;;;;;;;;;13.10;91.70;;;;;;5132457;27;19946;-67
2023/10/28 12:47:35;;;;;;;;;;;13.20;91.70;;;;;;5132525;27;20371;-66
2023/10/28 12:50:03;;;;;;;;;;;13.10;91.50;;;;;;5132158;27;20014;-66
2023/10/28 12:52:30;;;;;;;;;;;13.20;91.60;;;;;;5131091;27;19973;-66
2023/10/28 12:54:56;;;;;;;;;;;13.20;91.60;;;;;;5132244;27;20010;-66
2023/10/28 12:57:22;;;;;;;;;;;13.20;91.20;;;;;;5131228;27;20048;-66
2023/10/28 12:59:48;;;;;;;;;;;13.10;91.20;;;;;;5131557;27;20026;-67
2023/10/28 13:02:15;;;;;;;;;;;13.20;91.20;;;;;;5126598;27;19924;-67
2023/10/28 13:04:40;;;;;;;;;;;13.20;91.20;;;;;;5123666;27;19924;-67
2023/10/28 13:07:06;;;;;;;;;;;13.30;91.40;;;;;;5124769;27;19979;-67
2023/10/28 13:09:31;;;;;;;;;;;13.40;91.30;;;;;;5130021;27;20008;-67
2023/10/28 13:11:59;;;;;;;;;;;13.50;91.20;;;;;;5130178;27;19930;-67
2023/10/28 13:14:26;;;;;;;;;;;13.60;91.10;;;;;;5131667;27;19924;-66
2023/10/28 13:16:55;;;;;;;;;;;13.60;91.00;;;;;;5124242;27;19967;-66
2023/10/28 13:19:20;;;;;;;;;;;13.50;90.40;;;;;;5130718;27;20408;-67
2023/10/28 13:21:47;;;;;;;;;;;13.50;90.00;;;;;;5122737;27;19967;-66
2023/10/28 13:24:12;;;;;;;;;;;13.50;89.90;;;;;;5118877;27;19980;-66
2023/10/28 13:26:37;;;;;;;;;;;13.50;90.10;;;;;;5130863;27;19968;-67
2023/10/28 13:29:03;;;;;;;;;;;13.40;90.00;;;;;;5130694;27;19963;-66
2023/10/28 13:31:28;;;;;;;;;;;13.40;90.10;;;;;;5117361;27;19927;-66
2023/10/28 13:33:54;;;;;;;;;;;13.40;90.00;;;;;;5130587;27;19934;-66
2023/10/28 13:36:20;;;;;;;;;;;13.40;90.20;;;;;;5127703;27;19938;-66
2023/10/28 13:38:46;;;;;;;;;;;13.40;90.10;;;;;;5120749;27;20565;-67
2023/10/28 13:41:11;;;;;;;;;;;13.40;90.00;;;;;;5118087;27;19923;-65
2023/10/28 13:43:38;;;;;;;;;;;13.30;89.90;;;;;;5124570;27;19923;-66
2023/10/28 13:46:03;;;;;;;;;;;13.30;90.00;;;;;;5112439;27;19923;-67
2023/10/28 13:48:29;;;;;;;;;;;13.40;90.10;;;;;;5125307;27;20030;-66
2023/10/28 13:50:55;;;;;;;;;;;13.30;89.90;;;;;;5130697;27;20476;-67
2023/10/28 13:53:21;;;;;;;;;;;13.30;90.00;;;;;;5130266;27;19923;-66
2023/10/28 13:55:48;;;;;;;;;;;13.20;90.00;;;;;;5130511;27;19924;-67
2023/10/28 13:58:14;;;;;;;;;;;13.20;89.80;;;;;;5126444;27;19930;-67
2023/10/28 14:00:39;;;;;;;;;;;13.20;90.10;;;;;;5130518;27;19923;-67
2023/10/28 14:03:05;;;;;;;;;;;13.10;90.10;;;;;;5125006;27;19933;-66
2023/10/28 14:05:32;;;;;;;;;;;13.10;90.10;;;;;;5126745;27;19981;-67
2023/10/28 14:07:58;;;;;;;;;;;13.10;90.10;;;;;;5128256;27;20375;-66
2023/10/28 14:10:23;;;;;;;;;;;13.10;90.10;;;;;;5110033;28;19927;-67
2023/10/28 14:12:49;;;;;;;;;;;13.10;90.10;;;;;;5111055;27;20746;-66
2023/10/28 14:15:15;;;;;;;;;;;13.10;89.90;;;;;;5114622;27;19923;-67
2023/10/28 14:17:41;;;;;;;;;;;13.10;90.10;;;;;;5124984;27;19923;-67